Main page
METAR-TAF:

METAR-TAF

Airports :

Nîmes–Alès–Camargue–Cévennes Airport

Nîmes, France

latitude: 43-45N, longitude: 004-25E, elevation: 94 m

Current weather observation

The report was made 24 minutes ago, at 20:00 UTC
Wind 7 kt from the Southwest
Temperature 14°C
Humidity 44%
Pressure 1022 hPa
Visibility 10 km or more
no clouds below 1500 m and no cumulonimbus

METAR: LFTW 092000Z AUTO 22007KT CAVOK 14/02 Q1022

Time: 22:24 (20:24 UTC)

Forecast

The report was made 6 hours and 24 minutes ago, at 14:00 UTC
Forecast valid from 09 at 15 UTC to 10 at 15 UTC
Wind 12 kt from the South/Southwest
Visibility 10 km or more
no clouds below 1500 m and no cumulonimbus
Becoming
from 09 at 19 UTC to 09 at 20 UTC
Wind 2 kt from variable directions
Probability 30% :
Temporary
from 10 at 01 UTC to 10 at 06 UTC
Visibility: 4000 m
mist
Becoming
from 10 at 13 UTC to 10 at 14 UTC
Wind 10 kt from the South/Southwest

TAF: LFTW 091400Z 0915/1015 21012KT CAVOK BECMG 0919/0920 VRB02KT PROB30 TEMPO 1001/1006 4000 BR BECMG 1013/1014 21010KT

Weather observations and forecasts of more than 4000 airports (METAR and TAF reports).

The available stations are represented by yellow and red dots on the map.

Hover mouse over dot to see the name of the station.

Then click to see weather observations and forecasts.

To change the map : click on the green buttons with a black cross to zoom in, on the green button with a dash to zoom out, or on the green arrows for adjacent maps.


METAR-TAF: